createdAt,value
2022-11-07T00:00:27.591Z,19.13
2022-11-07T00:02:54.102Z,20.88
2022-11-07T00:05:20.802Z,20.65
2022-11-07T00:07:47.227Z,19.98
2022-11-07T00:10:13.708Z,19.55
2022-11-07T00:12:40.155Z,18.20
2022-11-07T00:15:07.039Z,18.65
2022-11-07T00:17:33.672Z,19.55
2022-11-07T00:20:00.212Z,18.55
2022-11-07T00:22:26.694Z,17.92
2022-11-07T00:24:53.128Z,17.83
2022-11-07T00:27:19.574Z,17.55
2022-11-07T00:29:46.080Z,18.73
2022-11-07T00:32:12.492Z,18.40
2022-11-07T00:34:38.993Z,17.75
2022-11-07T00:37:05.411Z,19.75
2022-11-07T00:39:32.088Z,16.23
2022-11-07T00:41:58.500Z,16.40
2022-11-07T00:44:25.020Z,16.17
2022-11-07T00:46:51.568Z,15.13
2022-11-07T00:49:18.024Z,15.55
2022-11-07T00:51:44.517Z,16.00
2022-11-07T00:54:11.748Z,14.82
2022-11-07T00:56:38.226Z,15.23
2022-11-07T00:59:04.769Z,15.13
2022-11-07T01:01:33.422Z,17.65
2022-11-07T01:04:18.558Z,15.38
2022-11-07T01:06:47.497Z,15.70
2022-11-07T01:09:20.800Z,15.38
2022-11-07T01:11:47.970Z,13.73
2022-11-07T01:14:16.732Z,13.25
2022-11-07T01:16:43.301Z,13.68
2022-11-07T01:19:10.262Z,14.25
2022-11-07T01:21:41.512Z,13.57
2022-11-07T01:24:10.876Z,12.85
2022-11-07T01:26:38.657Z,12.57
2022-11-07T01:29:05.492Z,13.15
2022-11-07T01:31:32.297Z,14.95
2022-11-07T01:34:00.255Z,12.90
2022-11-07T01:36:27.405Z,12.45
2022-11-07T01:38:54.459Z,12.98
2022-11-07T01:41:29.461Z,13.00
2022-11-07T01:43:55.893Z,13.13
2022-11-07T01:46:26.659Z,12.38
2022-11-07T01:48:59.202Z,13.05
2022-11-07T01:51:27.037Z,12.38
2022-11-07T01:53:55.005Z,12.68
2022-11-07T01:56:25.534Z,12.13
2022-11-07T01:58:54.259Z,10.82
2022-11-07T02:01:21.137Z,12.52
2022-11-07T02:03:48.071Z,12.48
2022-11-07T02:06:22.568Z,10.82
2022-11-07T02:08:50.685Z,10.40
2022-11-07T02:11:18.210Z,8.27
2022-11-07T02:13:44.738Z,9.18
2022-11-07T02:16:11.251Z,9.57
2022-11-07T02:18:41.658Z,11.70
2022-11-07T02:21:14.602Z,8.90
2022-11-07T02:23:54.700Z,9.80
2022-11-07T02:26:22.713Z,9.10
2022-11-07T02:28:49.764Z,8.70
2022-11-07T02:31:16.267Z,9.45
2022-11-07T02:33:44.925Z,8.52
2022-11-07T02:36:17.436Z,8.27
2022-11-07T02:38:44.347Z,9.80
2022-11-07T02:41:15.222Z,9.18
2022-11-07T02:43:49.131Z,7.68
2022-11-07T02:46:16.438Z,8.55
2022-11-07T02:48:48.381Z,8.10
2022-11-07T02:51:14.994Z,8.98
2022-11-07T02:53:41.493Z,9.00
2022-11-07T02:56:08.819Z,9.25
2022-11-07T02:58:35.590Z,9.23
2022-11-07T03:01:06.994Z,9.38
2022-11-07T03:03:44.660Z,9.07
2022-11-07T03:08:39.682Z,8.10
2022-11-07T03:11:06.910Z,8.82
2022-11-07T03:13:33.879Z,9.80
2022-11-07T03:16:04.645Z,9.25
2022-11-07T03:18:31.177Z,9.57
2022-11-07T03:20:57.570Z,8.27
2022-11-07T03:23:25.018Z,7.20
2022-11-07T03:25:51.535Z,8.82
2022-11-07T03:28:17.932Z,8.15
2022-11-07T03:30:44.340Z,8.07
2022-11-07T03:33:10.919Z,7.18
2022-11-07T03:35:37.327Z,7.72
2022-11-07T03:38:03.930Z,8.88
2022-11-07T03:40:30.389Z,7.22
2022-11-07T03:42:56.753Z,6.78
2022-11-07T03:45:23.114Z,6.70
2022-11-07T03:47:49.605Z,6.63
2022-11-07T03:50:18.877Z,7.72
2022-11-07T03:52:45.710Z,6.03
2022-11-07T03:55:15.866Z,8.55
2022-11-07T03:57:42.570Z,6.90
2022-11-07T04:00:09.827Z,6.60
2022-11-07T04:02:36.346Z,6.00
2022-11-07T04:05:02.846Z,5.97
2022-11-07T04:07:29.284Z,5.82
2022-11-07T04:09:55.823Z,6.25
2022-11-07T04:12:40.932Z,6.68
2022-11-07T04:15:28.692Z,5.65
2022-11-07T04:17:55.514Z,6.75
2022-11-07T04:20:21.949Z,6.07
2022-11-07T04:22:48.393Z,6.50
2022-11-07T04:25:15.015Z,5.72
2022-11-07T04:27:44.365Z,5.50
2022-11-07T04:30:21.789Z,5.40
2022-11-07T04:32:51.294Z,5.07
2022-11-07T04:35:18.553Z,6.57
2022-11-07T04:37:45.496Z,5.38
2022-11-07T04:40:12.424Z,5.07
2022-11-07T04:42:39.471Z,5.00
2022-11-07T04:45:06.653Z,4.53
2022-11-07T04:47:35.316Z,4.93
2022-11-07T04:50:08.763Z,4.60
2022-11-07T04:52:35.216Z,4.93
2022-11-07T04:55:01.998Z,4.95
2022-11-07T04:57:28.458Z,5.15
2022-11-07T04:59:54.859Z,5.07
2022-11-07T05:02:25.096Z,4.82
2022-11-07T05:04:52.952Z,5.47
2022-11-07T05:07:20.115Z,5.20
2022-11-07T05:09:46.554Z,4.53
2022-11-07T05:12:13.017Z,4.50
2022-11-07T05:14:39.412Z,5.30
2022-11-07T05:17:05.840Z,5.45
2022-11-07T05:19:32.273Z,5.38
2022-11-07T05:22:27.654Z,5.28
2022-11-07T05:24:54.648Z,5.47
2022-11-07T05:27:22.315Z,5.78
2022-11-07T05:29:48.765Z,5.43
2022-11-07T05:32:16.626Z,4.57
2022-11-07T05:34:43.410Z,5.93
2022-11-07T05:37:11.226Z,5.05
2022-11-07T05:39:38.329Z,5.40
2022-11-07T05:42:05.100Z,7.43
2022-11-07T05:44:31.698Z,5.38
2022-11-07T05:46:58.362Z,4.75
2022-11-07T05:49:25.405Z,9.27
2022-11-07T05:51:52.453Z,5.78
2022-11-07T05:54:19.024Z,5.72
2022-11-07T05:56:45.474Z,6.18
2022-11-07T05:59:12.573Z,5.13
2022-11-07T06:01:39.150Z,4.47
2022-11-07T06:04:06.591Z,5.57
2022-11-07T06:06:33.745Z,5.45
2022-11-07T06:09:00.225Z,6.63
2022-11-07T06:11:26.747Z,5.18
2022-11-07T06:13:57.428Z,5.35
2022-11-07T06:16:26.690Z,5.30
2022-11-07T06:18:53.481Z,5.18
2022-11-07T06:21:20.149Z,5.82
2022-11-07T06:23:48.371Z,5.35
2022-11-07T06:26:14.920Z,5.65
2022-11-07T06:28:41.678Z,5.47
2022-11-07T06:31:08.279Z,5.45
2022-11-07T06:33:37.145Z,6.25
2022-11-07T06:36:12.344Z,5.30
2022-11-07T06:38:40.127Z,4.70
2022-11-07T06:41:09.384Z,6.47
2022-11-07T06:43:36.761Z,6.03
2022-11-07T06:46:07.080Z,5.85
2022-11-07T06:48:34.122Z,5.82
2022-11-07T06:51:03.297Z,8.85
2022-11-07T06:53:30.617Z,7.07
2022-11-07T06:55:59.977Z,6.82
2022-11-07T06:58:29.997Z,5.28
2022-11-07T07:01:08.668Z,5.35
2022-11-07T07:03:36.102Z,7.10
2022-11-07T07:06:06.402Z,6.18
2022-11-07T07:08:37.337Z,7.80
2022-11-07T07:11:06.523Z,6.85
2022-11-07T07:13:35.855Z,5.72
2022-11-07T07:16:03.318Z,5.93
2022-11-07T07:18:33.058Z,5.68
2022-11-07T07:21:12.025Z,5.75
2022-11-07T07:23:39.270Z,5.88
2022-11-07T07:26:07.857Z,6.63
2022-11-07T07:28:36.502Z,5.70
2022-11-07T07:31:08.139Z,6.53
2022-11-07T07:33:34.837Z,7.78
2022-11-07T07:36:01.389Z,6.95
2022-11-07T07:38:27.919Z,7.07
2022-11-07T07:40:54.426Z,5.93
2022-11-07T07:43:20.924Z,6.18
2022-11-07T07:45:47.657Z,6.30
2022-11-07T07:48:14.182Z,6.45
2022-11-07T07:50:40.960Z,7.60
2022-11-07T07:53:09.249Z,7.35
2022-11-07T07:55:37.649Z,7.47
2022-11-07T07:58:04.254Z,7.07
2022-11-07T08:00:30.777Z,5.20
2022-11-07T08:03:05.975Z,7.95
2022-11-07T08:05:35.588Z,7.47
2022-11-07T08:08:02.178Z,7.40
2022-11-07T08:10:46.418Z,7.38
2022-11-07T08:13:13.035Z,9.90
2022-11-07T08:15:39.619Z,7.93
2022-11-07T08:18:06.193Z,8.27
2022-11-07T08:20:32.792Z,6.63
2022-11-07T08:23:12.900Z,6.47
2022-11-07T08:25:43.031Z,6.10
2022-11-07T08:28:09.776Z,7.43
2022-11-07T08:30:36.426Z,6.25
2022-11-07T08:33:03.744Z,6.32
2022-11-07T08:35:31.044Z,5.85
2022-11-07T08:37:58.205Z,6.07
2022-11-07T08:40:25.253Z,8.10
2022-11-07T08:42:53.395Z,5.55
2022-11-07T08:45:20.062Z,5.57
2022-11-07T08:47:46.593Z,6.82
2022-11-07T08:50:13.394Z,6.22
2022-11-07T08:52:39.980Z,8.25
2022-11-07T08:55:07.695Z,5.60
2022-11-07T08:57:34.366Z,5.63
2022-11-07T09:00:03.811Z,6.85
2022-11-07T09:05:17.671Z,6.45
2022-11-07T09:07:44.239Z,5.97
2022-11-07T09:10:11.753Z,5.80
2022-11-07T09:12:49.287Z,5.75
2022-11-07T09:15:16.908Z,5.82
2022-11-07T09:17:45.073Z,6.68
2022-11-07T09:20:11.830Z,6.22
2022-11-07T09:22:38.639Z,6.25
2022-11-07T09:25:05.532Z,5.95
2022-11-07T09:27:34.915Z,7.13
2022-11-07T09:30:01.794Z,7.10
2022-11-07T09:32:44.464Z,5.78
2022-11-07T09:35:13.031Z,5.25
2022-11-07T09:37:40.950Z,6.25
2022-11-07T09:40:17.046Z,4.63
2022-11-07T09:43:13.485Z,5.40
2022-11-07T09:45:58.525Z,6.55
2022-11-07T09:48:31.840Z,6.43
2022-11-07T09:50:58.509Z,3.95
2022-11-07T09:53:40.060Z,5.97
2022-11-07T09:56:10.705Z,5.35
2022-11-07T09:58:41.980Z,5.78
2022-11-07T10:01:18.147Z,4.53
2022-11-07T10:04:10.135Z,4.28
2022-11-07T10:06:36.209Z,3.55
2022-11-07T10:09:27.323Z,3.35
2022-11-07T10:12:06.657Z,3.65
2022-11-07T10:14:42.142Z,3.88
2022-11-07T10:17:20.758Z,3.75
2022-11-07T10:20:24.292Z,3.58
2022-11-07T10:23:09.730Z,3.95
2022-11-07T10:25:48.776Z,7.35
2022-11-07T10:28:20.487Z,3.78
2022-11-07T10:30:52.538Z,4.25
2022-11-07T10:33:24.827Z,4.28
2022-11-07T10:36:01.139Z,4.50
2022-11-07T10:38:30.191Z,3.95
2022-11-07T10:40:57.031Z,4.95
2022-11-07T10:43:40.665Z,3.70
2022-11-07T10:46:17.359Z,4.38
2022-11-07T10:49:16.326Z,4.30
2022-11-07T10:51:43.144Z,4.70
2022-11-07T10:54:25.214Z,4.68
2022-11-07T10:57:09.540Z,14.20
2022-11-07T10:59:58.927Z,4.88
2022-11-07T11:02:45.386Z,3.50
2022-11-07T11:05:30.713Z,3.75
2022-11-07T11:08:07.951Z,6.20
2022-11-07T11:13:05.172Z,5.75
2022-11-07T11:15:35.735Z,3.85
2022-11-07T11:18:07.200Z,3.28
2022-11-07T11:20:39.948Z,4.70
2022-11-07T11:23:15.909Z,3.33
2022-11-07T11:25:45.468Z,3.80
2022-11-07T11:28:30.153Z,2.47
2022-11-07T11:31:21.952Z,3.50
2022-11-07T11:34:11.257Z,2.20
2022-11-07T11:36:47.330Z,3.05
2022-11-07T11:39:26.416Z,5.05
2022-11-07T11:41:52.928Z,2.50
2022-11-07T11:44:40.792Z,5.45
2022-11-07T11:47:34.643Z,4.05
2022-11-07T11:50:24.691Z,3.08
2022-11-07T11:52:51.699Z,3.08
2022-11-07T11:55:20.711Z,3.70
2022-11-07T11:57:55.528Z,5.03
2022-11-07T12:00:24.356Z,4.25
2022-11-07T12:03:15.988Z,5.85
2022-11-07T12:05:45.319Z,4.43
2022-11-07T12:08:30.649Z,5.00
2022-11-07T12:11:14.931Z,2.60
2022-11-07T12:14:01.508Z,3.83
2022-11-07T12:16:45.809Z,6.35
2022-11-07T12:19:29.724Z,4.20
2022-11-07T12:22:33.382Z,5.40
2022-11-07T12:25:03.080Z,3.38
2022-11-07T12:27:39.730Z,3.88
2022-11-07T12:30:37.552Z,3.63
2022-11-07T12:33:21.679Z,4.07
2022-11-07T12:36:03.150Z,4.07
2022-11-07T12:39:04.136Z,5.22
2022-11-07T12:41:45.863Z,3.67
2022-11-07T12:44:40.066Z,3.22
2022-11-07T12:47:24.508Z,2.55
2022-11-07T12:50:12.490Z,3.78
2022-11-07T12:53:02.144Z,4.60
2022-11-07T12:55:41.507Z,3.00
2022-11-07T12:58:28.213Z,3.22
2022-11-07T13:00:56.332Z,2.95
2022-11-07T13:03:44.476Z,2.75
2022-11-07T13:06:15.370Z,3.35
2022-11-07T13:08:53.051Z,4.10
2022-11-07T13:11:33.366Z,3.78
2022-11-07T13:14:23.809Z,2.25
2022-11-07T13:16:52.410Z,3.38
2022-11-07T13:19:36.587Z,2.88
2022-11-07T13:22:06.734Z,2.15
2022-11-07T13:24:38.700Z,2.65
2022-11-07T13:27:21.317Z,4.38
2022-11-07T13:29:48.015Z,3.42
2022-11-07T13:32:15.914Z,5.68
2022-11-07T13:34:47.421Z,2.88
2022-11-07T13:37:31.953Z,6.93
2022-11-07T13:40:37.762Z,5.30
2022-11-07T13:43:20.015Z,3.90
2022-11-07T13:45:51.885Z,4.55
2022-11-07T13:48:24.493Z,4.40
2022-11-07T13:51:05.253Z,3.88
2022-11-07T13:53:55.698Z,4.80
2022-11-07T13:57:11.441Z,4.53
2022-11-07T14:00:05.344Z,5.63
2022-11-07T14:02:35.192Z,6.68
2022-11-07T14:05:21.795Z,4.40
2022-11-07T14:07:55.589Z,5.45
2022-11-07T14:10:30.765Z,2.97
2022-11-07T14:13:23.404Z,3.95
2022-11-07T14:15:56.374Z,3.85
2022-11-07T14:18:29.845Z,6.55
2022-11-07T14:20:59.358Z,4.05
2022-11-07T14:23:28.935Z,3.20
2022-11-07T14:26:05.550Z,3.38
2022-11-07T14:28:37.176Z,6.88
2022-11-07T14:31:27.302Z,4.97
2022-11-07T14:33:56.995Z,4.07
2022-11-07T14:36:23.851Z,8.63
2022-11-07T14:38:59.641Z,9.30
2022-11-07T14:41:26.298Z,10.15
2022-11-07T14:43:53.146Z,19.67
2022-11-07T14:46:23.691Z,11.65
2022-11-07T14:48:52.596Z,4.13
2022-11-07T14:51:26.468Z,5.55
2022-11-07T14:54:09.578Z,7.30
2022-11-07T14:56:42.195Z,4.93
2022-11-07T14:59:14.692Z,4.00
2022-11-07T15:01:56.366Z,3.67
2022-11-07T15:04:35.945Z,3.33
2022-11-07T15:07:22.212Z,4.38
2022-11-07T15:09:50.025Z,7.50
2022-11-07T15:12:20.514Z,4.40
2022-11-07T15:15:01.470Z,4.50
2022-11-07T15:17:28.793Z,5.53
2022-11-07T15:20:01.677Z,9.95
2022-11-07T15:22:37.232Z,4.40
2022-11-07T15:25:23.147Z,3.67
2022-11-07T15:27:49.690Z,4.93
2022-11-07T15:30:31.647Z,8.80
2022-11-07T15:33:01.758Z,3.85
2022-11-07T15:35:45.168Z,4.35
2022-11-07T15:38:21.683Z,5.15
2022-11-07T15:40:49.082Z,5.07
2022-11-07T15:43:25.981Z,10.05
2022-11-07T15:45:53.843Z,6.43
2022-11-07T15:48:23.709Z,5.35
2022-11-07T15:50:50.653Z,4.43
2022-11-07T15:53:27.397Z,4.68
2022-11-07T15:55:56.962Z,9.75
2022-11-07T15:58:26.014Z,6.10
2022-11-07T16:00:53.338Z,5.57
2022-11-07T16:03:22.780Z,3.75
2022-11-07T16:05:51.630Z,4.70
2022-11-07T16:08:22.595Z,4.78
2022-11-07T16:10:53.732Z,4.82
2022-11-07T16:13:20.922Z,6.10
2022-11-07T16:15:52.057Z,7.28
2022-11-07T16:18:23.862Z,6.90
2022-11-07T16:21:01.327Z,5.90
2022-11-07T16:23:35.895Z,7.57
2022-11-07T16:26:02.533Z,6.22
2022-11-07T16:28:32.580Z,7.30
2022-11-07T16:31:00.563Z,6.82
2022-11-07T16:33:28.342Z,11.32
2022-11-07T16:36:19.609Z,9.38
2022-11-07T16:38:46.357Z,13.05
2022-11-07T16:41:13.879Z,8.63
2022-11-07T16:43:40.809Z,13.18
2022-11-07T16:46:14.013Z,10.75
2022-11-07T16:48:42.380Z,9.70
2022-11-07T16:51:14.947Z,10.40
2022-11-07T16:53:42.215Z,9.27
2022-11-07T16:56:18.051Z,10.90
2022-11-07T16:58:44.617Z,12.90
2022-11-07T17:01:11.192Z,10.57
2022-11-07T17:03:38.070Z,10.68
2022-11-07T17:06:08.502Z,11.20
2022-11-07T17:08:43.428Z,12.40
2022-11-07T17:11:14.248Z,14.50
2022-11-07T17:16:18.955Z,9.98
2022-11-07T17:18:49.678Z,14.57
2022-11-07T17:21:26.765Z,11.68
2022-11-07T17:24:00.070Z,10.35
2022-11-07T17:26:35.832Z,11.80
2022-11-07T17:29:04.926Z,11.27
2022-11-07T17:31:31.762Z,11.20
2022-11-07T17:34:02.410Z,12.13
2022-11-07T17:36:37.408Z,9.68
2022-11-07T17:39:17.451Z,13.27
2022-11-07T17:41:48.685Z,11.65
2022-11-07T17:44:16.621Z,9.52
2022-11-07T17:46:45.666Z,8.48
2022-11-07T17:49:15.105Z,10.23
2022-11-07T17:51:42.670Z,11.38
2022-11-07T17:54:13.938Z,14.30
2022-11-07T17:56:41.999Z,10.52
2022-11-07T17:59:13.208Z,12.13
2022-11-07T18:01:40.601Z,38.80
2022-11-07T18:04:08.817Z,19.52
2022-11-07T18:06:37.564Z,13.32
2022-11-07T18:09:06.686Z,11.20
2022-11-07T18:11:34.984Z,9.35
2022-11-07T18:14:01.996Z,17.40
2022-11-07T18:16:34.450Z,12.35
2022-11-07T18:19:02.036Z,12.05
2022-11-07T18:21:29.505Z,14.75
2022-11-07T18:23:56.655Z,14.50
2022-11-07T18:26:31.576Z,11.90
2022-11-07T18:29:03.916Z,15.48
2022-11-07T18:31:30.883Z,14.20
2022-11-07T18:33:59.458Z,18.02
2022-11-07T18:36:27.012Z,14.98
2022-11-07T18:39:01.420Z,13.27
2022-11-07T18:41:28.053Z,13.02
2022-11-07T18:43:54.899Z,12.05
2022-11-07T18:46:24.005Z,11.25
2022-11-07T18:48:53.385Z,11.85
2022-11-07T18:51:23.717Z,10.75
2022-11-07T18:53:52.182Z,10.35
2022-11-07T18:56:19.276Z,12.20
2022-11-07T18:58:46.461Z,12.32
2022-11-07T19:01:14.574Z,12.52
2022-11-07T19:03:42.210Z,11.90
2022-11-07T19:06:11.456Z,11.10
2022-11-07T19:08:39.983Z,13.60
2022-11-07T19:11:10.512Z,12.68
2022-11-07T19:13:39.236Z,12.68
2022-11-07T19:16:08.395Z,14.07
2022-11-07T19:18:35.043Z,15.15
2022-11-07T19:21:01.745Z,15.75
2022-11-07T19:23:28.233Z,11.35
2022-11-07T19:25:55.455Z,14.80
2022-11-07T19:28:22.196Z,12.05
2022-11-07T19:30:49.230Z,13.25
2022-11-07T19:33:20.306Z,15.60
2022-11-07T19:35:47.377Z,13.43
2022-11-07T19:38:14.433Z,12.38
2022-11-07T19:40:47.961Z,16.83
2022-11-07T19:43:14.632Z,17.13
2022-11-07T19:45:42.239Z,15.00
2022-11-07T19:48:08.963Z,13.57
2022-11-07T19:50:37.194Z,12.98
2022-11-07T19:53:04.005Z,12.85
2022-11-07T19:55:30.811Z,13.60
2022-11-07T19:57:57.327Z,15.13
2022-11-07T20:00:26.151Z,13.40
2022-11-07T20:02:53.839Z,15.43
2022-11-07T20:05:34.199Z,16.38
2022-11-07T20:08:05.022Z,14.60
2022-11-07T20:10:32.695Z,12.38
2022-11-07T20:12:59.368Z,11.10
2022-11-07T20:15:25.875Z,11.23
2022-11-07T20:17:52.377Z,15.35
2022-11-07T20:20:22.621Z,12.25
2022-11-07T20:22:49.201Z,14.30
2022-11-07T20:25:16.127Z,14.50
2022-11-07T20:27:42.639Z,13.82
2022-11-07T20:30:09.787Z,13.18
2022-11-07T20:32:36.365Z,14.35
2022-11-07T20:35:03.431Z,13.15
2022-11-07T20:37:30.076Z,16.35
2022-11-07T20:39:56.590Z,14.18
2022-11-07T20:42:23.106Z,12.80
2022-11-07T20:44:50.851Z,14.45
2022-11-07T20:47:17.978Z,13.35
2022-11-07T20:49:44.487Z,11.80
2022-11-07T20:52:10.984Z,15.30
2022-11-07T20:54:37.767Z,15.35
2022-11-07T20:57:04.798Z,11.35
2022-11-07T20:59:32.003Z,14.40
2022-11-07T21:02:02.975Z,13.98
2022-11-07T21:04:44.420Z,15.32
2022-11-07T21:07:19.576Z,11.77
2022-11-07T21:09:46.860Z,15.88
2022-11-07T21:12:14.279Z,16.35
2022-11-07T21:14:42.175Z,13.38
2022-11-07T21:17:09.657Z,23.38
2022-11-07T21:19:36.303Z,16.98
2022-11-07T21:22:04.041Z,16.15
2022-11-07T21:24:31.053Z,10.70
2022-11-07T21:26:57.982Z,13.02
2022-11-07T21:29:29.191Z,12.20
2022-11-07T21:31:56.747Z,14.50
2022-11-07T21:34:23.213Z,15.95
2022-11-07T21:36:49.651Z,16.73
2022-11-07T21:39:17.353Z,19.60
2022-11-07T21:41:43.791Z,16.95
2022-11-07T21:44:12.225Z,17.15
2022-11-07T21:46:41.743Z,19.10
2022-11-07T21:49:08.398Z,16.75
2022-11-07T21:51:35.924Z,13.80
2022-11-07T21:54:04.480Z,14.07
2022-11-07T21:56:36.260Z,13.63
2022-11-07T21:59:07.952Z,15.38
2022-11-07T22:01:36.175Z,17.27
2022-11-07T22:04:08.036Z,18.73
2022-11-07T22:06:38.555Z,20.98
2022-11-07T22:09:07.350Z,14.15
2022-11-07T22:11:34.069Z,15.65
2022-11-07T22:14:00.667Z,15.05
2022-11-07T22:16:27.221Z,14.95
2022-11-07T22:18:53.742Z,12.48
2022-11-07T22:21:22.448Z,15.15
2022-11-07T22:23:49.995Z,13.93
2022-11-07T22:26:27.925Z,11.43
2022-11-07T22:28:54.730Z,13.55
2022-11-07T22:31:30.296Z,15.77
2022-11-07T22:33:58.771Z,14.60
2022-11-07T22:36:25.575Z,13.90
2022-11-07T22:38:52.372Z,15.63
2022-11-07T22:41:21.456Z,14.60
2022-11-07T22:43:49.193Z,18.25
2022-11-07T22:46:21.276Z,16.05
2022-11-07T22:48:48.749Z,14.30
2022-11-07T22:51:20.852Z,12.45
2022-11-07T22:53:50.667Z,13.40
2022-11-07T22:56:18.814Z,13.48
2022-11-07T22:58:46.943Z,13.95
2022-11-07T23:01:19.890Z,17.60
2022-11-07T23:03:47.557Z,14.30
2022-11-07T23:06:14.827Z,15.15
2022-11-07T23:08:42.735Z,13.18
2022-11-07T23:14:13.262Z,14.52
2022-11-07T23:16:43.784Z,13.38
2022-11-07T23:19:13.763Z,17.08
2022-11-07T23:21:40.503Z,14.35
2022-11-07T23:24:07.672Z,19.10
2022-11-07T23:26:34.779Z,14.93
2022-11-07T23:29:07.352Z,14.85
2022-11-07T23:31:36.845Z,17.95
2022-11-07T23:34:03.266Z,13.23
2022-11-07T23:36:29.730Z,14.48
2022-11-07T23:38:56.200Z,14.88
2022-11-07T23:41:22.823Z,13.93
2022-11-07T23:43:52.447Z,13.45
2022-11-07T23:46:37.919Z,15.30
2022-11-07T23:49:22.907Z,14.23
2022-11-07T23:51:49.399Z,16.05
2022-11-07T23:54:34.631Z,13.60
2022-11-07T23:57:01.126Z,13.35
2022-11-07T23:59:46.229Z,14.40
